createdAt,value
2023-03-22T00:02:23.799Z,100922.34
2023-03-22T00:04:57.625Z,100897.72
2023-03-22T00:07:38.270Z,100904.09
2023-03-22T00:10:23.100Z,100916.97
2023-03-22T00:13:19.415Z,100915.88
2023-03-22T00:16:13.216Z,100913.13
2023-03-22T00:18:48.135Z,100912.38
2023-03-22T00:24:17.136Z,100918.50
2023-03-22T00:27:10.755Z,100905.75
2023-03-22T00:29:52.554Z,100905.25
2023-03-22T00:32:39.733Z,100906.41
2023-03-22T00:35:12.484Z,100892.00
2023-03-22T00:37:55.945Z,100904.72
2023-03-22T00:40:45.674Z,100894.34
2023-03-22T00:43:40.518Z,100887.03
2023-03-22T00:46:28.645Z,100892.69
2023-03-22T00:49:13.665Z,100891.59
2023-03-22T00:52:01.447Z,100887.44
2023-03-22T00:54:41.625Z,100882.22
2023-03-22T00:57:24.429Z,100878.19
2023-03-22T01:00:15.806Z,100893.59
2023-03-22T01:03:09.630Z,100882.25
2023-03-22T01:05:48.992Z,100879.03
2023-03-22T01:08:41.465Z,100868.59
2023-03-22T01:11:24.546Z,100890.75
2023-03-22T01:14:10.096Z,100873.75
2023-03-22T01:17:00.162Z,100862.03
2023-03-22T01:19:34.976Z,100875.34
2023-03-22T01:22:11.215Z,100871.59
2023-03-22T01:24:48.669Z,100887.66
2023-03-22T01:27:26.098Z,100878.25
2023-03-22T01:30:05.417Z,100886.72
2023-03-22T01:32:37.028Z,100879.09
2023-03-22T01:35:20.679Z,100870.69
2023-03-22T01:38:19.811Z,100868.00
2023-03-22T01:41:22.072Z,100873.97
2023-03-22T01:44:13.224Z,100882.06
2023-03-22T01:46:49.997Z,100880.28
2023-03-22T01:49:36.645Z,100884.88
2023-03-22T01:52:17.351Z,100877.63
2023-03-22T01:55:12.852Z,100876.84
2023-03-22T01:57:48.380Z,100868.59
2023-03-22T02:00:30.172Z,100875.91
2023-03-22T02:03:19.056Z,100875.03
2023-03-22T02:05:53.197Z,100881.91
2023-03-22T02:08:27.507Z,100879.53
2023-03-22T02:11:42.568Z,100870.53
2023-03-22T02:14:45.028Z,100873.41
2023-03-22T02:18:02.284Z,100884.09
2023-03-22T02:20:57.274Z,100869.97
2023-03-22T02:24:06.085Z,100872.94
2023-03-22T02:27:00.747Z,100872.56
2023-03-22T02:29:46.268Z,100861.56
2023-03-22T02:33:31.613Z,100858.50
2023-03-22T02:36:14.232Z,100856.69
2023-03-22T02:38:59.448Z,100859.69
2023-03-22T02:41:49.420Z,100849.44
2023-03-22T02:45:03.681Z,100847.63
2023-03-22T02:47:37.892Z,100857.34
2023-03-22T02:50:52.494Z,100848.09
2023-03-22T02:57:20.481Z,100870.66
2023-03-22T03:00:20.976Z,100866.91
2023-03-22T03:03:33.409Z,100864.34
2023-03-22T03:06:47.584Z,100861.47
2023-03-22T03:09:37.803Z,100855.19
2023-03-22T03:12:33.307Z,100856.22
2023-03-22T03:15:30.610Z,100874.94
2023-03-22T03:19:02.504Z,100866.72
2023-03-22T03:22:17.789Z,100883.59
2023-03-22T03:25:05.194Z,100881.78
2023-03-22T03:28:26.592Z,100867.47
2023-03-22T03:31:17.485Z,100888.06
2023-03-22T03:34:13.747Z,100884.38
2023-03-22T03:36:59.998Z,100877.91
2023-03-22T03:39:54.989Z,100877.97
2023-03-22T03:42:40.870Z,100878.59
2023-03-22T03:46:02.397Z,100878.19
2023-03-22T03:48:39.153Z,100886.50
2023-03-22T03:51:26.476Z,100893.00
2023-03-22T03:54:07.920Z,100891.34
2023-03-22T03:56:45.924Z,100884.47
2023-03-22T03:59:35.217Z,100880.25
2023-03-22T04:02:31.609Z,100882.56
2023-03-22T04:05:26.722Z,100888.97
2023-03-22T04:08:13.110Z,100878.53
2023-03-22T04:10:49.014Z,100874.19
2023-03-22T04:13:32.246Z,100871.97
2023-03-22T04:16:07.892Z,100889.72
2023-03-22T04:18:44.986Z,100889.81
2023-03-22T04:21:19.438Z,100869.78
2023-03-22T04:24:11.592Z,100876.06
2023-03-22T04:26:59.673Z,100882.53
2023-03-22T04:29:37.833Z,100867.09
2023-03-22T04:35:30.614Z,100877.81
2023-03-22T04:38:17.781Z,100871.88
2023-03-22T04:40:46.924Z,100878.84
2023-03-22T04:43:39.950Z,100879.38
2023-03-22T04:46:22.923Z,100879.28
2023-03-22T04:49:11.117Z,100879.28
2023-03-22T04:51:47.127Z,100889.56
2023-03-22T04:54:25.286Z,100881.41
2023-03-22T04:57:06.155Z,100872.75
2023-03-22T04:59:46.475Z,100879.31
2023-03-22T05:02:20.138Z,100878.00
2023-03-22T05:05:00.704Z,100896.50
2023-03-22T05:07:51.216Z,100877.53
2023-03-22T05:10:29.658Z,100892.41
2023-03-22T05:13:02.914Z,100886.16
2023-03-22T05:15:50.837Z,100904.63
2023-03-22T05:18:30.788Z,100893.66
2023-03-22T05:21:07.325Z,100903.16
2023-03-22T05:23:42.760Z,100895.94
2023-03-22T05:26:21.033Z,100896.09
2023-03-22T05:29:03.111Z,100905.56
2023-03-22T05:32:14.181Z,100910.75
2023-03-22T05:34:47.913Z,100911.47
2023-03-22T05:37:46.825Z,100909.75
2023-03-22T05:40:46.732Z,100912.53
2023-03-22T05:43:21.686Z,100909.38
2023-03-22T05:45:56.066Z,100908.22
2023-03-22T05:49:08.050Z,100916.72
2023-03-22T05:51:41.952Z,100905.97
2023-03-22T05:54:12.588Z,100923.75
2023-03-22T05:57:06.241Z,100905.69
2023-03-22T05:59:51.721Z,100907.69
2023-03-22T06:02:58.810Z,100918.81
2023-03-22T06:06:15.671Z,100911.31
2023-03-22T06:10:01.189Z,100921.03
2023-03-22T06:12:38.378Z,100934.66
2023-03-22T06:15:23.841Z,100924.03
2023-03-22T06:18:15.831Z,100925.50
2023-03-22T06:21:23.060Z,100919.38
2023-03-22T06:24:02.457Z,100940.25
2023-03-22T06:27:11.802Z,100934.84
2023-03-22T06:30:01.633Z,100929.00
2023-03-22T06:32:45.156Z,100940.31
2023-03-22T06:35:27.954Z,100922.41
2023-03-22T06:38:24.342Z,100936.78
2023-03-22T06:44:15.999Z,100927.22
2023-03-22T06:47:11.920Z,100919.44
2023-03-22T06:49:55.375Z,100925.91
2023-03-22T06:52:27.635Z,100933.94
2023-03-22T06:54:57.020Z,100925.06
2023-03-22T06:57:36.790Z,100926.00
2023-03-22T07:00:52.294Z,100936.53
2023-03-22T07:04:07.687Z,100935.97
2023-03-22T07:06:54.617Z,100935.13
2023-03-22T07:09:42.543Z,100926.03
2023-03-22T07:12:18.808Z,100937.88
2023-03-22T07:15:27.671Z,100928.88
2023-03-22T07:18:17.170Z,100933.34
2023-03-22T07:20:48.632Z,100929.94
2023-03-22T07:23:17.825Z,100940.28
2023-03-22T07:25:58.938Z,100941.00
2023-03-22T07:28:30.830Z,100941.47
2023-03-22T07:31:08.707Z,100943.25
2023-03-22T07:34:09.685Z,100945.41
2023-03-22T07:37:03.128Z,100949.69
2023-03-22T07:39:36.660Z,100955.81
2023-03-22T07:42:14.545Z,100954.19
2023-03-22T07:46:13.115Z,100949.84
2023-03-22T07:49:07.500Z,100954.81
2023-03-22T07:52:12.413Z,100966.03
2023-03-22T07:55:41.302Z,100958.38
2023-03-22T07:58:47.231Z,100959.34
2023-03-22T08:02:47.645Z,100968.81
2023-03-22T08:05:54.099Z,100951.69
2023-03-22T08:12:15.270Z,100960.28
2023-03-22T08:15:34.923Z,100957.38
2023-03-22T08:22:21.717Z,100957.66
2023-03-22T08:25:09.406Z,100957.75
2023-03-22T08:27:39.667Z,100963.31
2023-03-22T08:30:08.244Z,100957.81
2023-03-22T08:32:36.869Z,100960.22
2023-03-22T08:35:06.953Z,100958.88
2023-03-22T08:37:35.010Z,100945.88
2023-03-22T08:40:10.568Z,100958.13
2023-03-22T08:42:50.841Z,100955.19
2023-03-22T08:45:19.040Z,100951.53
2023-03-22T08:47:58.185Z,100967.66
2023-03-22T08:50:30.947Z,100962.03
2023-03-22T08:53:18.564Z,100952.03
2023-03-22T08:55:58.240Z,100957.38
2023-03-22T09:01:48.607Z,100959.97
2023-03-22T09:04:16.864Z,100962.13
2023-03-22T09:06:45.701Z,100961.56
2023-03-22T09:09:15.090Z,100963.00
2023-03-22T09:11:45.714Z,100965.91
2023-03-22T09:14:13.675Z,100961.81
2023-03-22T09:16:43.014Z,100965.66
2023-03-22T09:19:11.727Z,100963.84
2023-03-22T09:21:40.556Z,100968.34
2023-03-22T09:24:17.666Z,100966.56
2023-03-22T09:26:50.618Z,100964.06
2023-03-22T09:29:23.632Z,100960.75
2023-03-22T09:31:51.917Z,100976.81
2023-03-22T09:34:24.799Z,100968.38
2023-03-22T09:36:54.315Z,100960.34
2023-03-22T09:39:28.822Z,100967.34
2023-03-22T09:42:02.790Z,100964.88
2023-03-22T09:44:36.340Z,100964.63
2023-03-22T09:47:15.874Z,100961.09
2023-03-22T09:49:53.912Z,100959.59
2023-03-22T09:52:22.238Z,100963.41
2023-03-22T09:54:52.591Z,100962.31
2023-03-22T09:57:37.323Z,100943.78
2023-03-22T10:00:32.516Z,100951.94
2023-03-22T10:03:17.656Z,100955.25
2023-03-22T10:06:08.821Z,100946.03
2023-03-22T10:08:54.965Z,100942.69
2023-03-22T10:12:07.291Z,100938.28
2023-03-22T10:14:42.442Z,100939.13
2023-03-22T10:17:14.781Z,100946.31
2023-03-22T10:20:08.275Z,100943.09
2023-03-22T10:22:46.675Z,100938.22
2023-03-22T10:25:22.645Z,100938.38
2023-03-22T10:27:52.463Z,100949.91
2023-03-22T10:30:22.081Z,100928.16
2023-03-22T10:33:00.641Z,100934.88
2023-03-22T10:35:30.768Z,100941.56
2023-03-22T10:38:02.298Z,100936.41
2023-03-22T10:40:33.707Z,100935.53
2023-03-22T10:43:08.436Z,100928.56
2023-03-22T10:45:37.490Z,100922.22
2023-03-22T10:48:19.358Z,100925.16
2023-03-22T10:50:47.987Z,100919.44
2023-03-22T10:53:24.940Z,100922.75
2023-03-22T10:55:53.471Z,100913.94
2023-03-22T10:58:23.395Z,100914.19
2023-03-22T11:00:55.221Z,100912.53
2023-03-22T11:03:39.837Z,100904.81
2023-03-22T11:06:25.001Z,100911.63
2023-03-22T11:09:03.842Z,100909.50
2023-03-22T11:11:36.699Z,100905.06
2023-03-22T11:14:15.969Z,100905.22
2023-03-22T11:16:56.201Z,100897.13
2023-03-22T11:19:29.511Z,100900.66
2023-03-22T11:21:59.588Z,100904.91
2023-03-22T11:24:30.954Z,100906.50
2023-03-22T11:27:09.206Z,100896.81
2023-03-22T11:29:45.163Z,100894.41
2023-03-22T11:32:36.259Z,100897.28
2023-03-22T11:35:23.044Z,100893.28
2023-03-22T11:37:56.131Z,100889.69
2023-03-22T11:40:26.722Z,100889.72
2023-03-22T11:43:02.718Z,100882.44
2023-03-22T11:45:34.472Z,100885.66
2023-03-22T11:48:07.417Z,100878.44
2023-03-22T11:50:38.279Z,100871.69
2023-03-22T11:53:12.436Z,100868.44
2023-03-22T11:55:42.796Z,100860.47
2023-03-22T11:58:39.922Z,100859.00
2023-03-22T12:01:15.470Z,100859.31
2023-03-22T12:03:48.168Z,100861.03
2023-03-22T12:06:22.174Z,100849.25
2023-03-22T12:08:58.002Z,100853.47
2023-03-22T12:11:33.324Z,100852.59
2023-03-22T12:14:22.109Z,100850.63
2023-03-22T12:17:08.031Z,100839.25
2023-03-22T12:20:00.960Z,100848.50
2023-03-22T12:22:33.059Z,100843.72
2023-03-22T12:25:04.134Z,100845.44
2023-03-22T12:27:39.336Z,100847.03
2023-03-22T12:30:17.188Z,100841.78
2023-03-22T12:32:51.380Z,100835.50
2023-03-22T12:35:25.854Z,100827.22
2023-03-22T12:37:58.525Z,100828.22
2023-03-22T12:40:34.199Z,100825.53
2023-03-22T12:43:16.190Z,100814.44
2023-03-22T12:45:49.396Z,100803.75
2023-03-22T12:48:40.609Z,100814.53
2023-03-22T12:51:15.928Z,100805.06
2023-03-22T12:53:52.277Z,100804.66
2023-03-22T12:56:25.482Z,100795.06
2023-03-22T12:59:03.712Z,100785.84
2023-03-22T13:01:46.178Z,100793.91
2023-03-22T13:04:49.903Z,100787.19
2023-03-22T13:07:37.588Z,100784.78
2023-03-22T13:10:32.284Z,100780.91
2023-03-22T13:13:22.119Z,100791.59
2023-03-22T13:16:11.353Z,100792.41
2023-03-22T13:19:07.624Z,100785.31
2023-03-22T13:21:52.997Z,100765.31
2023-03-22T13:24:30.234Z,100766.53
2023-03-22T13:27:10.622Z,100772.44
2023-03-22T13:29:39.301Z,100768.75
2023-03-22T13:32:32.957Z,100771.53
2023-03-22T13:35:19.966Z,100765.22
2023-03-22T13:38:35.276Z,100767.63
2023-03-22T13:41:15.268Z,100767.13
2023-03-22T13:43:54.484Z,100758.91
2023-03-22T13:46:38.261Z,100768.94
2023-03-22T13:49:29.735Z,100765.78
2023-03-22T13:52:02.334Z,100770.63
2023-03-22T13:54:41.659Z,100765.16
2023-03-22T13:57:50.169Z,100746.50
2023-03-22T14:00:56.664Z,100752.53
2023-03-22T14:03:46.988Z,100744.38
2023-03-22T14:06:22.373Z,100742.97
2023-03-22T14:08:58.661Z,100738.22
2023-03-22T14:11:44.196Z,100729.91
2023-03-22T14:14:27.869Z,100732.00
2023-03-22T14:20:27.719Z,100721.41
